Time;durP1;ratioP1;P1;durP2;ratioP2;P2;SDS_P1;SDS_P2;PMS_P1;PMS_P2;Temp;Humidity;BMP_temperature;BMP_pressure;BME280_temperature;BME280_humidity;BME280_pressure;Samples;Min_cycle;Max_cycle;Signal;HPM_P1;HPM_P2
2022/03/28 00:02:11;;;;;;;3.83;2.30;;;;;;;6.64;93.19;102871.31;5016686;28;20496;-76
2022/03/28 00:04:36;;;;;;;4.97;2.92;;;;;;;6.69;93.36;102877.22;5018810;28;20056;-76
2022/03/28 00:07:02;;;;;;;5.22;2.80;;;;;;;6.64;93.68;102863.44;5019981;28;20482;-75
2022/03/28 00:09:28;;;;;;;8.20;2.90;;;;;;;6.71;93.93;102867.50;5018558;28;20037;-77
2022/03/28 00:11:53;;;;;;;3.15;2.42;;;;;;;6.68;94.59;102865.84;5019948;28;20041;-76
2022/03/28 00:14:19;;;;;;;6.47;2.55;;;;;;;6.69;94.35;102849.19;5011300;28;20176;-75
2022/03/28 00:16:44;;;;;;;4.35;2.75;;;;;;;6.68;93.78;102841.41;5004209;28;20068;-75
2022/03/28 00:19:10;;;;;;;5.43;2.40;;;;;;;6.80;93.26;102852.13;5014094;28;20386;-76
2022/03/28 00:21:35;;;;;;;5.32;3.00;;;;;;;6.80;92.86;102848.66;5014767;28;20022;-76
2022/03/28 00:24:00;;;;;;;4.40;2.58;;;;;;;6.80;92.64;102851.28;5016193;28;20453;-75
2022/03/28 00:26:26;;;;;;;5.32;2.60;;;;;;;6.74;92.84;102846.34;5021510;28;20026;-77
2022/03/28 00:28:51;;;;;;;3.88;3.10;;;;;;;6.72;93.02;102821.94;5012623;28;20080;-76
2022/03/28 00:31:17;;;;;;;5.55;2.83;;;;;;;6.85;92.59;102838.78;5007350;28;20045;-76
2022/03/28 00:33:43;;;;;;;5.25;2.65;;;;;;;6.78;93.72;102832.16;5019560;28;20026;-76
2022/03/28 00:36:09;;;;;;;4.40;2.83;;;;;;;6.66;93.85;102827.50;5018093;28;20029;-76
2022/03/28 00:38:34;;;;;;;4.97;3.35;;;;;;;6.46;94.31;102810.97;5017031;28;20034;-76
2022/03/28 00:40:59;;;;;;;3.08;2.45;;;;;;;6.45;95.12;102818.94;5017132;28;20479;-76
2022/03/28 00:43:26;;;;;;;5.50;2.63;;;;;;;6.34;95.01;102801.94;5014723;28;20029;-77
2022/03/28 00:45:52;;;;;;;6.25;3.22;;;;;;;6.34;95.09;102809.78;5005680;28;20859;-76
2022/03/28 00:48:17;;;;;;;5.90;3.60;;;;;;;6.28;96.13;102801.38;5015625;28;20054;-77
2022/03/28 00:50:42;;;;;;;5.88;2.83;;;;;;;6.24;96.14;102791.97;5018451;28;20034;-76
2022/03/28 00:53:11;;;;;;;4.38;2.75;;;;;;;6.37;95.59;102807.00;5015420;28;20029;-77
2022/03/28 00:55:37;;;;;;;3.92;2.50;;;;;;;6.37;95.74;102804.38;5014259;28;20036;-76
2022/03/28 00:58:03;;;;;;;4.55;2.75;;;;;;;6.44;95.87;102802.31;5023078;28;20404;-77
2022/03/28 01:00:28;;;;;;;6.40;3.30;;;;;;;6.44;95.31;102802.31;5020373;28;20061;-77
2022/03/28 01:02:55;;;;;;;7.88;3.45;;;;;;;6.34;95.60;102795.84;5018996;28;20478;-77
2022/03/28 01:05:20;;;;;;;9.43;3.83;;;;;;;6.28;95.91;102798.75;5019620;28;20042;-77
2022/03/28 01:07:46;;;;;;;5.07;2.97;;;;;;;6.31;96.99;102795.97;5014392;28;20034;-77
2022/03/28 01:10:12;;;;;;;6.07;3.30;;;;;;;6.23;96.48;102783.25;5015893;28;20484;-79
2022/03/28 01:12:42;;;;;;;8.50;3.10;;;;;;;6.24;96.43;102778.84;4960052;28;1146881;-79
2022/03/28 01:15:10;;;;;;;8.10;3.43;;;;;;;6.08;96.76;102763.84;5015273;28;20441;-77
2022/03/28 01:20:22;;;;;;;4.63;2.88;;;;;;;6.00;97.64;102767.75;5018119;28;20048;-77
2022/03/28 01:22:47;;;;;;;4.50;2.28;;;;;;;6.16;96.67;102777.44;5018903;28;20037;-77
2022/03/28 01:25:19;;;;;;;5.88;2.63;;;;;;;6.20;96.63;102783.38;5010937;28;20428;-78
2022/03/28 01:27:46;;;;;;;3.83;2.28;;;;;;;6.05;96.53;102774.47;5030323;28;20477;-78
2022/03/28 01:30:12;;;;;;;4.82;2.63;;;;;;;6.09;96.06;102778.66;5002980;28;20033;-78
2022/03/28 01:32:37;;;;;;;3.78;1.98;;;;;;;6.06;95.76;102770.94;5005097;28;20420;-78
2022/03/28 01:35:03;;;;;;;4.57;1.98;;;;;;;6.09;96.32;102777.81;5017474;28;20071;-78
2022/03/28 01:37:28;;;;;;;3.50;1.73;;;;;;;6.10;96.28;102776.91;5017681;28;20033;-77
2022/03/28 01:39:54;;;;;;;4.28;2.03;;;;;;;6.10;96.19;102772.50;5014994;28;20029;-77
2022/03/28 01:42:19;;;;;;;3.75;2.20;;;;;;;6.10;96.29;102766.41;5020366;28;20049;-78
2022/03/28 01:44:49;;;;;;;3.78;2.03;;;;;;;6.09;96.65;102754.22;5013583;28;20040;-78
2022/03/28 01:47:15;;;;;;;4.50;2.40;;;;;;;5.90;96.45;102722.75;5016222;28;20037;-77
2022/03/28 01:49:40;;;;;;;6.28;1.77;;;;;;;6.10;96.24;102751.53;5014157;28;20033;-77
2022/03/28 01:52:06;;;;;;;6.15;1.83;;;;;;;6.10;96.38;102746.28;5016093;28;20054;-77
2022/03/28 01:54:31;;;;;;;4.10;1.60;;;;;;;6.04;96.70;102741.34;5016185;28;20018;-77
2022/03/28 01:56:57;;;;;;;3.00;1.55;;;;;;;6.07;96.41;102741.16;5014969;28;20033;-77
2022/03/28 01:59:22;;;;;;;4.88;2.40;;;;;;;5.98;95.91;102733.75;5018440;28;20087;-78
2022/03/28 02:01:48;;;;;;;4.15;2.17;;;;;;;5.99;96.75;102738.09;5017596;28;20034;-78
2022/03/28 02:04:13;;;;;;;6.55;2.28;;;;;;;5.95;96.39;102731.28;4999396;28;20401;-78
2022/03/28 02:06:38;;;;;;;5.47;2.38;;;;;;;6.08;96.60;102735.03;4998283;28;20066;-78
2022/03/28 02:09:04;;;;;;;3.60;1.77;;;;;;;6.03;96.83;102729.16;5015358;28;20040;-78
2022/03/28 02:11:30;;;;;;;3.50;1.80;;;;;;;5.98;96.67;102729.34;5002262;28;20037;-78
2022/03/28 02:13:55;;;;;;;3.08;1.88;;;;;;;6.08;97.16;102732.41;5003638;28;20465;-77
2022/03/28 02:16:21;;;;;;;3.72;2.00;;;;;;;6.06;96.79;102728.16;5015808;28;20038;-77
2022/03/28 02:18:46;;;;;;;2.53;1.45;;;;;;;6.04;95.74;102725.59;5016726;28;20481;-78
2022/03/28 02:21:12;;;;;;;2.10;1.10;;;;;;;6.10;95.56;102729.72;5017439;28;20030;-78
2022/03/28 02:23:37;;;;;;;2.17;0.93;;;;;;;5.99;95.02;102730.22;5016003;28;20588;-77
2022/03/28 02:26:03;;;;;;;2.17;1.10;;;;;;;5.93;94.93;102723.47;5016363;28;20437;-77
2022/03/28 02:28:29;;;;;;;2.17;1.30;;;;;;;5.93;95.22;102720.00;5015916;28;20025;-77
2022/03/28 02:30:55;;;;;;;1.63;0.80;;;;;;;5.97;94.85;102711.09;5018280;28;20470;-77
2022/03/28 02:33:21;;;;;;;1.90;1.17;;;;;;;5.78;94.43;102685.75;5015839;28;20445;-78
2022/03/28 02:35:47;;;;;;;2.22;1.20;;;;;;;5.76;94.04;102678.88;5015459;28;20018;-77
2022/03/28 02:38:12;;;;;;;1.73;1.02;;;;;;;5.86;93.98;102713.38;5013841;28;20037;-77
2022/03/28 02:40:38;;;;;;;1.98;1.10;;;;;;;5.81;93.63;102704.84;5018581;28;20041;-77
2022/03/28 02:43:04;;;;;;;2.03;1.17;;;;;;;5.90;93.71;102709.66;5015745;28;20170;-77
2022/03/28 02:45:32;;;;;;;1.65;1.23;;;;;;;5.87;94.82;102705.41;5015064;28;20034;-77
2022/03/28 02:48:01;;;;;;;2.38;1.08;;;;;;;5.84;95.37;102710.81;5014705;28;20049;-78
2022/03/28 02:50:29;;;;;;;0.93;0.60;;;;;;;5.81;94.49;102703.06;5014699;28;20482;-78
2022/03/28 02:52:55;;;;;;;0.90;0.60;;;;;;;5.74;94.67;102678.09;5013027;28;20414;-78
2022/03/28 02:55:21;;;;;;;1.27;0.90;;;;;;;5.91;94.26;102698.25;5015663;28;20469;-78
2022/03/28 02:57:46;;;;;;;1.33;0.77;;;;;;;5.84;93.70;102678.53;5014386;28;20073;-77
2022/03/28 03:00:12;;;;;;;2.08;0.88;;;;;;;5.85;93.68;102690.69;5015613;28;20026;-79
2022/03/28 03:02:38;;;;;;;1.95;0.90;;;;;;;5.82;94.54;102696.09;5015521;28;20482;-78
2022/03/28 03:05:05;;;;;;;1.65;0.60;;;;;;;5.69;93.89;102673.09;5013059;28;20022;-77
2022/03/28 03:07:30;;;;;;;1.52;0.90;;;;;;;5.71;93.79;102675.66;5013896;28;20073;-77
2022/03/28 03:09:56;;;;;;;1.23;0.60;;;;;;;5.74;93.07;102676.31;5015397;28;20029;-77
2022/03/28 03:12:21;;;;;;;3.65;0.90;;;;;;;5.76;92.88;102663.16;5012240;28;20037;-77
2022/03/28 03:14:47;;;;;;;2.05;0.90;;;;;;;5.84;93.03;102678.53;5014506;28;20049;-77
2022/03/28 03:17:12;;;;;;;1.40;0.80;;;;;;;5.75;92.73;102656.25;5012199;28;20128;-77
2022/03/28 03:19:40;;;;;;;2.08;1.00;;;;;;;5.85;93.55;102682.81;4997359;28;20069;-77
2022/03/28 03:22:06;;;;;;;1.38;0.95;;;;;;;5.68;93.88;102655.69;5016464;28;20525;-77
2022/03/28 03:24:32;;;;;;;1.48;0.88;;;;;;;5.82;93.63;102673.34;5014167;28;20042;-78
2022/03/28 03:26:57;;;;;;;2.58;1.33;;;;;;;5.76;94.35;102657.91;5015865;28;20029;-77
2022/03/28 03:29:23;;;;;;;3.40;1.77;;;;;;;5.69;95.01;102651.28;4987501;28;20034;-77
2022/03/28 03:31:49;;;;;;;2.65;1.50;;;;;;;5.75;96.28;102659.69;5021362;28;20029;-78
2022/03/28 03:34:14;;;;;;;4.22;1.92;;;;;;;5.75;96.37;102661.47;5016244;28;20021;-78
2022/03/28 03:36:39;;;;;;;3.38;1.85;;;;;;;5.70;96.75;102659.06;5013779;28;20057;-78
2022/03/28 03:39:05;;;;;;;2.83;1.63;;;;;;;5.81;96.56;102666.41;4998660;28;20912;-77
2022/03/28 03:41:30;;;;;;;4.63;2.70;;;;;;;5.79;95.82;102652.53;5018219;28;20438;-77
2022/03/28 03:43:55;;;;;;;6.00;2.40;;;;;;;5.81;95.73;102655.91;5015937;28;20389;-77
2022/03/28 03:46:21;;;;;;;5.00;2.95;;;;;;;5.73;95.57;102640.59;4995568;28;20083;-77
2022/03/28 03:48:46;;;;;;;4.70;2.75;;;;;;;5.85;96.52;102656.63;5019127;28;20033;-77
2022/03/28 03:51:13;;;;;;;5.93;3.75;;;;;;;5.81;96.71;102655.06;5017195;28;20505;-77
2022/03/28 03:53:39;;;;;;;4.88;2.85;;;;;;;5.78;96.44;102654.28;5017681;28;20056;-77
2022/03/28 03:56:04;;;;;;;6.22;3.33;;;;;;;5.83;96.79;102648.84;5019933;28;20082;-77
2022/03/28 03:58:29;;;;;;;5.55;3.42;;;;;;;5.67;96.75;102617.28;5019350;28;20425;-76
2022/03/28 04:00:55;;;;;;;6.35;3.67;;;;;;;5.81;96.64;102639.34;5017684;28;20416;-76
2022/03/28 04:03:20;;;;;;;7.30;3.53;;;;;;;5.74;97.49;102631.78;5018145;28;20026;-77
2022/03/28 04:05:46;;;;;;;7.18;4.28;;;;;;;5.73;97.66;102637.97;5003169;28;20029;-77
2022/03/28 04:08:11;;;;;;;5.85;3.55;;;;;;;5.77;97.80;102641.28;5015121;28;20560;-77
2022/03/28 04:10:36;;;;;;;7.30;4.38;;;;;;;5.81;97.81;102649.84;5017201;28;20037;-77
2022/03/28 04:13:02;;;;;;;6.60;4.00;;;;;;;5.69;97.68;102633.78;5017906;28;20474;-77
2022/03/28 04:15:28;;;;;;;7.25;3.65;;;;;;;5.73;97.61;102643.19;5017548;28;20045;-77
2022/03/28 04:17:54;;;;;;;8.35;3.25;;;;;;;5.59;98.03;102614.19;5017336;28;20034;-77
2022/03/28 04:20:20;;;;;;;4.97;2.83;;;;;;;5.69;97.27;102631.16;5015269;28;20037;-78
2022/03/28 04:22:46;;;;;;;6.05;3.33;;;;;;;5.71;97.26;102637.19;5015371;28;20038;-77
2022/03/28 04:25:13;;;;;;;5.65;3.20;;;;;;;5.74;97.54;102629.16;5016336;28;20045;-77
2022/03/28 04:27:38;;;;;;;6.50;3.00;;;;;;;5.74;97.45;102629.16;5022533;28;20037;-77
2022/03/28 04:30:06;;;;;;;5.68;3.13;;;;;;;5.73;97.82;102637.13;5021802;28;20117;-77
2022/03/28 04:32:31;;;;;;;7.13;3.85;;;;;;;5.67;97.78;102622.53;5019802;28;20143;-77
2022/03/28 04:34:57;;;;;;;7.07;3.47;;;;;;;5.55;98.80;102607.41;5017772;28;20402;-77
2022/03/28 04:37:23;;;;;;;7.35;3.85;;;;;;;5.62;99.21;102618.44;5019653;28;20088;-77
2022/03/28 04:39:49;;;;;;;6.93;3.95;;;;;;;5.62;98.81;102611.44;5021932;28;20364;-77
2022/03/28 04:42:14;;;;;;;7.15;3.22;;;;;;;5.73;99.13;102626.66;5018856;28;20298;-77
2022/03/28 04:44:40;;;;;;;6.43;3.95;;;;;;;5.72;98.15;102632.78;5023042;28;20068;-77
2022/03/28 04:47:06;;;;;;;7.47;3.92;;;;;;;5.57;98.48;102606.44;5018764;28;20056;-77
2022/03/28 04:49:31;;;;;;;6.72;3.63;;;;;;;5.67;98.90;102612.06;5018809;28;20072;-76
2022/03/28 04:51:57;;;;;;;6.10;3.40;;;;;;;5.65;97.55;102610.44;5019351;28;20033;-76
2022/03/28 04:54:23;;;;;;;5.65;3.55;;;;;;;5.67;97.57;102606.81;5018497;28;20494;-77
2022/03/28 04:56:48;;;;;;;5.55;3.85;;;;;;;5.57;97.02;102576.75;5019201;28;20021;-77
2022/03/28 04:59:13;;;;;;;5.50;3.97;;;;;;;5.75;96.58;102604.69;5018132;28;20080;-77
2022/03/28 05:01:39;;;;;;;4.35;3.17;;;;;;;5.70;96.01;102580.47;5016127;28;20111;-77
2022/03/28 05:04:04;;;;;;;8.73;3.92;;;;;;;5.75;95.85;102599.44;5019380;28;20057;-77
2022/03/28 05:06:30;;;;;;;7.00;4.30;;;;;;;5.77;95.70;102596.75;5016996;28;20437;-76
2022/03/28 05:08:55;;;;;;;7.07;4.68;;;;;;;5.75;96.22;102598.59;5015582;28;20276;-77
2022/03/28 05:11:22;;;;;;;12.05;5.72;;;;;;;5.60;96.16;102594.94;5009067;28;20026;-77
2022/03/28 05:13:49;;;;;;;8.50;5.60;;;;;;;5.45;96.82;102590.47;5014479;28;20054;-77
2022/03/28 05:16:15;;;;;;;6.43;4.03;;;;;;;5.49;97.69;102578.91;5017090;28;20491;-74
2022/03/28 05:18:40;;;;;;;10.55;5.65;;;;;;;5.57;97.55;102589.84;5010737;28;20103;-74
2022/03/28 05:21:06;;;;;;;9.77;5.47;;;;;;;5.59;97.85;102589.78;5011777;28;20041;-75
2022/03/28 05:23:32;;;;;;;6.97;4.45;;;;;;;5.56;97.33;102585.53;5016427;28;20116;-76
2022/03/28 05:25:58;;;;;;;7.70;4.50;;;;;;;5.45;97.67;102574.75;5018893;28;20029;-75
2022/03/28 05:28:23;;;;;;;8.00;3.55;;;;;;;5.55;98.23;102571.59;5015353;28;20103;-75
2022/03/28 05:30:49;;;;;;;5.20;3.50;;;;;;;5.56;97.82;102580.31;5010347;28;20026;-75
2022/03/28 05:33:14;;;;;;;6.60;4.28;;;;;;;5.47;98.23;102554.56;5011974;28;20061;-76
2022/03/28 05:35:43;;;;;;;7.40;3.85;;;;;;;5.55;98.08;102545.41;5009225;28;20030;-76
2022/03/28 05:38:09;;;;;;;6.05;4.05;;;;;;;5.69;98.34;102557.81;5008525;28;20069;-76
2022/03/28 05:40:34;;;;;;;6.45;4.68;;;;;;;5.69;97.81;102554.38;5010989;28;20505;-76
2022/03/28 05:43:00;;;;;;;7.93;4.88;;;;;;;5.67;97.45;102566.69;5012736;28;20120;-76
2022/03/28 05:45:25;;;;;;;8.35;5.60;;;;;;;5.57;97.75;102542.69;5008753;28;20041;-76
2022/03/28 05:47:51;;;;;;;9.18;5.45;;;;;;;5.65;98.07;102552.81;4992845;28;20033;-76
2022/03/28 05:50:16;;;;;;;10.27;6.20;;;;;;;5.76;97.88;102560.97;5011258;28;20068;-77
2022/03/28 05:52:41;;;;;;;11.18;6.25;;;;;;;5.83;97.68;102566.75;4995423;28;20498;-76
2022/03/28 05:55:08;;;;;;;7.65;4.85;;;;;;;5.73;97.91;102561.16;5012817;28;20029;-76
2022/03/28 05:57:33;;;;;;;11.35;5.57;;;;;;;5.69;98.04;102542.09;5013573;28;20040;-77
2022/03/28 05:59:59;;;;;;;7.07;4.60;;;;;;;5.85;98.10;102564.91;5011411;28;20033;-75
2022/03/28 06:02:24;;;;;;;9.30;5.75;;;;;;;5.74;97.85;102561.06;5006176;28;20371;-77
2022/03/28 06:04:50;;;;;;;9.55;5.90;;;;;;;5.82;98.41;102568.53;4999476;28;20378;-77
2022/03/28 06:07:16;;;;;;;12.15;6.25;;;;;;;5.85;98.59;102572.78;5011895;28;20033;-76
2022/03/28 06:09:42;;;;;;;12.10;6.72;;;;;;;5.89;98.54;102569.09;5011259;28;20030;-77
2022/03/28 06:12:08;;;;;;;10.73;6.70;;;;;;;5.98;97.44;102572.09;4997449;28;20041;-77
2022/03/28 06:14:33;;;;;;;10.30;6.78;;;;;;;5.98;97.21;102545.88;5017526;28;20677;-77
2022/03/28 06:16:58;;;;;;;9.77;5.95;;;;;;;6.06;96.47;102550.75;5011324;28;20052;-77
2022/03/28 06:19:24;;;;;;;13.23;6.72;;;;;;;6.15;96.78;102555.53;5015584;28;20030;-77
2022/03/28 06:21:49;;;;;;;9.43;5.78;;;;;;;6.18;96.00;102550.13;5009569;28;20042;-77
2022/03/28 06:24:15;;;;;;;8.98;5.88;;;;;;;6.18;95.36;102555.38;5013987;28;20044;-77
2022/03/28 06:26:40;;;;;;;10.63;5.22;;;;;;;6.25;95.29;102548.03;5017141;28;20095;-77
2022/03/28 06:29:05;;;;;;;8.88;5.90;;;;;;;6.13;95.27;102531.16;5014920;28;20025;-77
2022/03/28 06:31:31;;;;;;;12.35;5.15;;;;;;;6.15;95.74;102531.09;5014874;28;20510;-77
2022/03/28 06:34:02;;;;;;;8.10;5.53;;;;;;;6.29;95.90;102538.22;4997145;28;20056;-79
2022/03/28 06:36:29;;;;;;;8.25;5.60;;;;;;;6.39;94.99;102539.44;4986836;28;20038;-79
2022/03/28 06:38:55;;;;;;;8.20;5.55;;;;;;;6.41;94.69;102539.38;5020422;28;20449;-77
2022/03/28 06:41:21;;;;;;;11.45;5.75;;;;;;;6.45;95.10;102535.66;5016731;28;20030;-76
2022/03/28 06:43:47;;;;;;;12.07;5.80;;;;;;;6.48;95.16;102538.09;5012302;28;20057;-78
2022/03/28 06:46:13;;;;;;;7.90;5.40;;;;;;;6.38;95.11;102520.25;5012668;28;20030;-77
2022/03/28 06:48:39;;;;;;;9.20;6.65;;;;;;;6.58;94.39;102536.69;5010878;28;20037;-76
2022/03/28 06:51:06;;;;;;;10.40;6.32;;;;;;;6.51;93.45;102520.44;5008639;28;20038;-75
2022/03/28 06:53:32;;;;;;;6.53;4.78;;;;;;;6.67;94.09;102536.19;5013524;28;20083;-77
2022/03/28 06:55:57;;;;;;;9.90;6.10;;;;;;;6.59;93.94;102533.97;5015416;28;20079;-75
2022/03/28 06:58:23;;;;;;;9.52;6.78;;;;;;;6.56;94.40;102521.03;5017598;28;20484;-76
2022/03/28 07:00:49;;;;;;;9.77;5.93;;;;;;;6.42;95.37;102507.78;5019411;28;20029;-78
2022/03/28 07:03:14;;;;;;;10.45;6.95;;;;;;;6.46;96.27;102511.94;5013408;28;20161;-75
2022/03/28 07:05:40;;;;;;;7.90;5.35;;;;;;;6.39;96.68;102500.09;4981374;28;20120;-77
2022/03/28 07:08:05;;;;;;;6.50;4.35;;;;;;;6.42;97.25;102513.03;4976530;28;20130;-76
2022/03/28 07:10:31;;;;;;;6.05;4.30;;;;;;;6.35;97.40;102504.66;5010797;28;20104;-77
2022/03/28 07:12:56;;;;;;;7.90;4.78;;;;;;;6.44;97.98;102507.72;5014458;28;20037;-77
2022/03/28 07:15:22;;;;;;;6.60;4.80;;;;;;;6.49;98.18;102511.78;5016440;28;20241;-77
2022/03/28 07:17:58;;;;;;;12.13;6.55;;;;;;;6.39;98.09;102503.56;5003413;28;20033;-77
2022/03/28 07:20:28;;;;;;;9.90;5.03;;;;;;;6.17;98.79;102500.38;5014446;28;20041;-77
2022/03/28 07:22:54;;;;;;;6.15;4.45;;;;;;;6.08;99.70;102506.13;5011972;28;20067;-77
2022/03/28 07:25:21;;;;;;;6.68;4.10;;;;;;;5.75;100.00;102493.81;5015699;28;20083;-77
2022/03/28 07:27:50;;;;;;;6.03;4.28;;;;;;;5.76;100.00;102505.97;5020844;28;20517;-77
2022/03/28 07:30:19;;;;;;;7.13;4.75;;;;;;;5.70;100.00;102503.66;5020469;28;20032;-77
2022/03/28 07:32:45;;;;;;;7.20;4.70;;;;;;;5.65;100.00;102503.88;5023319;28;20580;-77
2022/03/28 07:35:12;;;;;;;8.93;5.30;;;;;;;5.56;100.00;102499.13;5013018;28;20022;-77
2022/03/28 07:37:39;;;;;;;8.07;4.78;;;;;;;5.47;100.00;102494.34;5017478;28;20025;-77
2022/03/28 07:40:06;;;;;;;8.75;4.85;;;;;;;5.61;100.00;102502.34;5017170;28;20030;-77
2022/03/28 07:42:33;;;;;;;7.85;4.90;;;;;;;5.48;100.00;102462.81;5018689;28;20026;-77
2022/03/28 07:44:59;;;;;;;12.68;5.72;;;;;;;5.81;100.00;102495.25;5006434;28;20041;-77
2022/03/28 07:47:25;;;;;;;9.93;5.47;;;;;;;5.89;100.00;102500.94;5016788;28;20120;-77
2022/03/28 07:49:55;;;;;;;8.98;5.05;;;;;;;5.91;100.00;102496.47;5012565;28;20038;-77
2022/03/28 07:52:21;;;;;;;9.32;5.70;;;;;;;5.83;100.00;102490.78;5024041;28;20038;-77
2022/03/28 07:54:48;;;;;;;10.70;5.85;;;;;;;5.71;100.00;102464.28;5017798;28;20044;-77
2022/03/28 07:57:14;;;;;;;9.80;5.45;;;;;;;5.84;100.00;102488.09;5018887;28;20180;-77
2022/03/28 07:59:46;;;;;;;10.00;6.22;;;;;;;5.92;100.00;102490.28;5020462;28;20245;-77
2022/03/28 08:02:11;;;;;;;8.40;5.72;;;;;;;5.91;100.00;102483.38;5011376;28;20022;-77
2022/03/28 08:04:37;;;;;;;9.18;5.85;;;;;;;6.09;100.00;102485.06;5020446;28;20568;-78
2022/03/28 08:07:05;;;;;;;10.30;6.07;;;;;;;6.04;100.00;102476.59;5022980;28;20042;-77
2022/03/28 08:09:31;;;;;;;13.07;6.40;;;;;;;6.08;100.00;102485.16;4990624;28;20092;-77
2022/03/28 08:11:57;;;;;;;13.70;7.78;;;;;;;6.11;100.00;102483.19;5017611;28;20061;-77
2022/03/28 08:14:23;;;;;;;15.85;7.10;;;;;;;6.25;100.00;102481.63;5026941;28;20053;-77
2022/03/28 08:16:49;;;;;;;15.63;8.35;;;;;;;6.36;100.00;102480.13;5020347;28;20046;-77
2022/03/28 08:19:14;;;;;;;12.20;7.05;;;;;;;6.47;100.00;102474.31;5025869;28;20079;-77
2022/03/28 08:21:40;;;;;;;12.95;7.65;;;;;;;6.64;100.00;102459.41;5026593;28;20498;-77
2022/03/28 08:24:05;;;;;;;14.48;8.43;;;;;;;6.85;98.89;102463.47;5016923;28;20132;-77
2022/03/28 08:26:31;;;;;;;11.32;6.93;;;;;;;6.87;98.27;102451.09;5027455;28;20457;-77
2022/03/28 08:28:57;;;;;;;10.85;7.70;;;;;;;7.10;96.53;102465.56;5004660;28;20038;-77
2022/03/28 08:31:22;;;;;;;13.23;8.07;;;;;;;7.13;95.08;102457.50;5020783;28;20106;-77
2022/03/28 08:33:48;;;;;;;17.35;7.57;;;;;;;7.10;95.13;102455.06;5017904;28;20033;-77
2022/03/28 08:36:13;;;;;;;15.45;8.40;;;;;;;7.04;95.12;102459.81;5026330;28;20029;-77
2022/03/28 08:38:39;;;;;;;14.10;8.93;;;;;;;6.73;95.32;102443.19;5019984;28;20037;-76
2022/03/28 08:41:11;;;;;;;11.07;7.30;;;;;;;6.91;96.53;102436.88;5018481;28;20057;-77
2022/03/28 08:43:37;;;;;;;13.82;8.13;;;;;;;7.26;95.78;102454.19;5012704;28;20022;-77
2022/03/28 08:46:04;;;;;;;10.50;6.90;;;;;;;7.39;94.06;102455.16;5025222;28;20117;-75
2022/03/28 08:48:33;;;;;;;12.50;8.25;;;;;;;7.65;92.20;102465.91;5016742;28;20461;-75
2022/03/28 08:50:59;;;;;;;11.70;7.18;;;;;;;7.69;91.49;102465.63;5018748;28;20025;-75
2022/03/28 08:53:25;;;;;;;17.45;9.05;;;;;;;7.54;90.83;102453.41;5016736;28;20030;-75
2022/03/28 08:55:51;;;;;;;13.18;9.20;;;;;;;7.57;91.81;102447.94;5003601;28;20151;-75
2022/03/28 08:58:17;;;;;;;14.50;8.88;;;;;;;7.81;91.52;102474.56;4995487;28;20116;-76
2022/03/28 09:00:42;;;;;;;19.02;10.45;;;;;;;7.92;90.67;102473.91;5019557;28;20105;-75
2022/03/28 09:03:08;;;;;;;24.25;11.13;;;;;;;7.80;90.67;102471.09;5005210;28;20034;-75
2022/03/28 09:05:36;;;;;;;21.40;11.00;;;;;;;7.60;90.72;102466.19;5011131;28;20482;-75
2022/03/28 09:08:04;;;;;;;22.48;10.40;;;;;;;7.29;92.01;102480.25;5023284;28;20025;-75
2022/03/28 09:10:34;;;;;;;17.88;9.60;;;;;;;7.22;93.44;102470.09;5020598;28;20018;-75
2022/03/28 09:13:16;;;;;;;19.40;10.32;;;;;;;7.13;94.12;102459.28;5017331;28;20418;-75
2022/03/28 09:15:44;;;;;;;18.65;10.23;;;;;;;7.20;94.46;102464.06;5025271;28;20052;-75
2022/03/28 09:18:39;;;;;;;20.63;10.75;;;;;;;7.23;94.52;102444.69;5024254;28;20025;-75
2022/03/28 09:21:12;;;;;;;18.10;11.18;;;;;;;7.33;93.53;102450.25;5021772;28;20045;-76
2022/03/28 09:23:43;;;;;;;17.83;10.55;;;;;;;7.45;93.98;102439.03;5026161;28;20104;-75
2022/03/28 09:26:09;;;;;;;15.10;9.50;;;;;;;7.43;93.30;102448.78;5009246;28;20087;-75
2022/03/28 09:28:37;;;;;;;14.27;9.00;;;;;;;7.54;93.13;102454.25;5025714;28;20144;-75
2022/03/28 09:31:17;;;;;;;34.00;11.73;;;;;;;7.51;92.63;102453.56;5022905;28;20136;-76
2022/03/28 09:33:53;;;;;;;22.07;10.70;;;;;;;7.56;92.81;102447.13;5008044;28;20501;-76
2022/03/28 09:36:34;;;;;;;17.70;8.75;;;;;;;7.60;92.42;102438.13;5025557;28;20402;-76
2022/03/28 09:39:00;;;;;;;;;;;;;;;7.72;91.64;102447.03;5023287;28;20072;-76
2022/03/28 09:41:28;;;;;;;17.05;10.52;;;;;;;7.81;91.69;102445.63;5024500;28;20377;-76
2022/03/28 09:43:54;;;;;;;23.15;10.90;;;;;;;7.77;91.52;102434.47;5006576;28;20057;-77
2022/03/28 09:46:33;;;;;;;14.25;8.80;;;;;;;7.76;91.91;102426.69;5009391;28;20063;-76
2022/03/28 09:48:59;;;;;;;16.40;9.60;;;;;;;7.58;91.74;102413.72;5007577;28;20053;-75
2022/03/28 09:51:27;;;;;;;16.58;9.13;;;;;;;7.56;92.76;102398.97;4991527;28;20068;-75
2022/03/28 09:53:52;;;;;;;18.08;10.50;;;;;;;7.88;92.34;102410.16;5008176;28;20087;-77
2022/03/28 09:56:18;;;;;;;18.08;8.82;;;;;;;8.17;91.50;102411.00;5008210;28;20025;-76
2022/03/28 09:59:03;;;;;;;16.02;10.10;;;;;;;8.44;89.85;102404.94;5016444;28;20469;-77
2022/03/28 10:01:32;;;;;;;22.60;9.10;;;;;;;8.24;88.67;102412.28;5019722;28;20528;-77
2022/03/28 10:04:05;;;;;;;13.30;8.65;;;;;;;8.27;88.84;102397.25;5015068;28;20064;-77
2022/03/28 10:06:31;;;;;;;17.08;8.77;;;;;;;8.36;87.68;102400.16;5009545;28;20057;-78
2022/03/28 10:08:58;;;;;;;16.35;9.07;;;;;;;8.53;86.86;102432.47;5013828;28;20034;-77
2022/03/28 10:11:24;;;;;;;17.92;9.38;;;;;;;8.48;87.32;102419.59;5012665;28;20600;-76
2022/03/28 10:13:50;;;;;;;15.90;9.00;;;;;;;8.59;87.21;102406.59;5018202;28;20049;-76
2022/03/28 10:16:16;;;;;;;16.52;8.88;;;;;;;8.73;86.66;102413.63;5006988;28;20478;-76
2022/03/28 10:18:45;;;;;;;11.80;8.32;;;;;;;8.67;87.25;102413.16;5006918;28;20037;-77
2022/03/28 10:21:16;;;;;;;18.45;9.50;;;;;;;8.61;86.54;102399.44;5015065;28;20458;-76
2022/03/28 10:24:04;;;;;;;13.85;8.73;;;;;;;8.77;86.85;102401.09;5023350;28;20029;-76
2022/03/28 10:26:34;;;;;;;16.52;9.10;;;;;;;9.10;85.81;102399.81;5016978;28;20075;-76
2022/03/28 10:29:09;;;;;;;15.52;8.55;;;;;;;8.88;85.52;102389.84;5018237;28;20101;-76
2022/03/28 10:31:53;;;;;;;13.65;7.63;;;;;;;9.12;85.80;102393.47;5016630;28;20028;-76
2022/03/28 10:34:47;;;;;;;12.85;8.27;;;;;;;9.10;84.01;102390.09;5017338;28;20076;-76
2022/03/28 10:37:30;;;;;;;12.15;8.02;;;;;;;8.95;84.02;102386.72;5012603;28;20080;-76
2022/03/28 10:40:26;;;;;;;12.98;7.50;;;;;;;9.45;84.17;102379.84;5009002;28;20504;-77
2022/03/28 10:42:53;;;;;;;10.15;7.93;;;;;;;9.76;83.06;102383.00;5008725;28;20034;-77
2022/03/28 10:45:21;;;;;;;12.18;7.95;;;;;;;9.94;82.26;102365.03;5013396;28;20030;-75
2022/03/28 10:47:50;;;;;;;11.60;7.55;;;;;;;10.31;80.73;102377.41;5017607;28;20040;-76
2022/03/28 10:50:37;;;;;;;11.52;7.40;;;;;;;10.25;79.49;102363.66;5024262;28;20036;-76
2022/03/28 10:53:08;;;;;;;13.27;8.43;;;;;;;9.94;80.16;102370.31;5018300;28;20128;-76
2022/03/28 10:55:51;;;;;;;11.85;8.40;;;;;;;9.99;81.74;102367.34;5019668;28;20041;-77
2022/03/28 10:58:25;;;;;;;12.23;7.25;;;;;;;10.28;80.23;102363.47;5016811;28;20036;-76
2022/03/28 11:01:09;;;;;;;18.38;10.18;;;;;;;9.94;79.95;102359.75;5013309;28;20540;-76
2022/03/28 11:03:57;;;;;;;16.20;8.68;;;;;;;9.48;80.55;102370.88;5015630;28;20057;-76
2022/03/28 11:07:00;;;;;;;12.32;8.07;;;;;;;9.60;82.38;102361.25;5019956;28;20080;-76
2022/03/28 11:09:41;;;;;;;14.15;8.43;;;;;;;9.68;82.05;102353.69;5021171;28;20029;-76
2022/03/28 11:12:17;;;;;;;15.23;8.82;;;;;;;9.48;82.32;102361.16;5023145;28;20057;-76
2022/03/28 11:14:49;;;;;;;12.55;8.32;;;;;;;9.14;83.29;102359.16;5019343;28;20053;-76
2022/03/28 11:17:15;;;;;;;14.23;8.75;;;;;;;9.23;84.18;102358.50;5022175;28;20038;-76
2022/03/28 11:19:56;;;;;;;16.42;9.48;;;;;;;8.97;84.00;102352.38;5025916;28;20497;-76
2022/03/28 11:22:42;;;;;;;15.97;8.03;;;;;;;9.41;85.59;102352.00;5023808;28;20029;-76
2022/03/28 11:25:46;;;;;;;11.00;8.10;;;;;;;9.95;82.40;102360.59;5012223;28;20030;-76
2022/03/28 11:28:23;;;;;;;12.05;8.02;;;;;;;9.70;80.77;102351.78;5025464;28;20025;-76
2022/03/28 11:30:50;;;;;;;12.57;7.47;;;;;;;9.80;81.62;102305.38;5009216;28;20441;-76
2022/03/28 11:33:19;;;;;;;12.63;8.70;;;;;;;10.37;79.51;102340.03;5027081;28;20440;-76
2022/03/28 11:36:05;;;;;;;10.70;7.30;;;;;;;10.81;78.70;102341.19;5026762;28;20033;-76